Time;durP1;ratioP1;P1;durP2;ratioP2;P2;SDS_P1;SDS_P2;PMS_P1;PMS_P2;Temp;Humidity;BMP_temperature;BMP_pressure;BME280_temperature;BME280_humidity;BME280_pressure;Samples;Min_cycle;Max_cycle;Signal;HPM_P1;HPM_P2
2022/05/18 00:02:13;;;;;;;17.93;16.07;;;16.60;99.90;;;;;;5015529;28;20454;-61
2022/05/18 00:04:40;;;;;;;18.20;16.00;;;16.50;99.90;;;;;;5014641;28;20469;-62
2022/05/18 00:07:07;;;;;;;16.87;15.17;;;16.50;99.90;;;;;;5015159;28;20442;-61
2022/05/18 00:09:34;;;;;;;16.60;15.00;;;16.50;99.90;;;;;;5015087;28;20533;-62
2022/05/18 00:12:04;;;;;;;16.10;14.50;;;16.50;99.90;;;;;;5014602;28;20461;-63
2022/05/18 00:14:31;;;;;;;17.27;15.20;;;16.50;99.90;;;;;;5015233;28;20496;-62
2022/05/18 00:17:00;;;;;;;18.00;16.10;;;16.50;99.90;;;;;;5015188;28;20446;-62
2022/05/18 00:19:27;;;;;;;19.07;16.10;;;16.50;99.90;;;;;;5015599;28;20827;-62
2022/05/18 00:21:54;;;;;;;16.93;15.23;;;16.40;99.90;;;;;;5015133;28;20445;-61
2022/05/18 00:24:21;;;;;;;16.90;15.23;;;16.40;99.90;;;;;;5015278;28;20470;-62
2022/05/18 00:26:48;;;;;;;17.13;15.47;;;16.40;99.90;;;;;;5019463;28;20433;-62
2022/05/18 00:29:16;;;;;;;18.80;16.37;;;16.40;99.90;;;;;;5019410;28;20449;-62
2022/05/18 00:31:46;;;;;;;17.70;16.00;;;16.40;99.90;;;;;;5019496;28;20449;-62
2022/05/18 00:34:14;;;;;;;18.73;16.90;;;16.40;99.90;;;;;;5019540;28;20488;-62
2022/05/18 00:36:41;;;;;;;16.23;14.60;;;16.40;99.90;;;;;;5018871;28;20455;-62
2022/05/18 00:39:09;;;;;;;16.47;14.93;;;16.30;99.90;;;;;;5018316;28;20453;-63
2022/05/18 00:41:37;;;;;;;21.87;16.83;;;16.30;99.90;;;;;;5017843;28;20452;-61
2022/05/18 00:44:06;;;;;;;17.80;16.10;;;16.30;99.90;;;;;;5017768;28;20496;-61
2022/05/18 00:46:35;;;;;;;18.27;16.53;;;16.30;99.90;;;;;;5017920;28;20456;-61
2022/05/18 00:49:05;;;;;;;18.60;16.80;;;16.30;99.90;;;;;;5017801;28;20446;-62
2022/05/18 00:51:39;;;;;;;16.50;14.83;;;16.30;99.90;;;;;;5018280;28;20536;-62
2022/05/18 00:54:10;;;;;;;17.33;15.60;;;16.20;99.90;;;;;;5019019;28;20493;-61
2022/05/18 00:56:41;;;;;;;19.20;17.23;;;16.20;99.90;;;;;;5019175;28;20429;-62
2022/05/18 00:59:13;;;;;;;18.80;16.90;;;16.20;99.90;;;;;;5019187;28;20434;-62
2022/05/18 01:01:42;;;;;;;18.43;16.70;;;16.20;99.90;;;;;;5019584;28;20787;-62
2022/05/18 01:04:10;;;;;;;18.23;16.17;;;16.20;99.90;;;;;;5019750;28;20462;-62
2022/05/18 01:06:42;;;;;;;19.70;16.77;;;16.20;99.90;;;;;;5020343;28;20449;-62
2022/05/18 01:09:16;;;;;;;17.73;16.10;;;16.20;99.90;;;;;;5018962;28;20898;-63
2022/05/18 01:11:43;;;;;;;18.47;16.93;;;16.20;99.90;;;;;;5019458;28;20437;-62
2022/05/18 01:14:14;;;;;;;18.93;16.97;;;16.20;99.90;;;;;;5019009;28;20493;-62
2022/05/18 01:16:43;;;;;;;19.03;17.23;;;16.20;99.90;;;;;;5018943;28;20537;-62
2022/05/18 01:19:20;;;;;;;18.40;16.60;;;16.10;99.90;;;;;;5019001;28;20866;-62
2022/05/18 01:22:00;;;;;;;17.80;16.00;;;16.10;99.90;;;;;;5018452;28;20429;-62
2022/05/18 01:24:33;;;;;;;18.50;16.73;;;16.10;99.90;;;;;;5018195;28;20473;-58
2022/05/18 01:27:02;;;;;;;18.40;16.60;;;16.10;99.90;;;;;;5019248;28;20439;-60
2022/05/18 01:29:31;;;;;;;18.63;16.93;;;16.10;99.90;;;;;;5019495;28;20453;-60
2022/05/18 01:32:01;;;;;;;18.47;16.60;;;16.10;99.90;;;;;;5020289;28;20446;-61
2022/05/18 01:34:31;;;;;;;19.73;17.67;;;16.10;99.90;;;;;;5019092;28;20481;-62
2022/05/18 01:36:58;;;;;;;19.77;17.87;;;16.10;99.90;;;;;;5016643;28;20457;-61
2022/05/18 01:39:30;;;;;;;18.90;16.97;;;16.10;99.90;;;;;;5017487;28;20821;-62
2022/05/18 01:42:10;;;;;;;19.43;17.50;;;16.10;99.90;;;;;;5018352;28;20474;-60
2022/05/18 01:44:40;;;;;;;18.60;16.60;;;16.10;99.90;;;;;;5017854;28;20461;-58
2022/05/18 01:47:08;;;;;;;19.30;17.40;;;16.10;99.90;;;;;;5018300;28;20446;-60
2022/05/18 01:49:37;;;;;;;20.10;17.90;;;16.10;99.90;;;;;;5017997;28;20941;-61
2022/05/18 01:52:05;;;;;;;19.70;17.80;;;16.10;99.90;;;;;;5017639;28;20976;-60
2022/05/18 01:54:37;;;;;;;18.43;16.80;;;16.00;99.90;;;;;;5017583;28;21004;-61
2022/05/18 01:57:06;;;;;;;19.23;17.33;;;16.00;99.90;;;;;;5017804;28;20431;-62
2022/05/18 01:59:34;;;;;;;20.33;18.13;;;16.00;99.90;;;;;;5017488;28;20453;-61
2022/05/18 02:02:01;;;;;;;20.57;18.53;;;16.00;99.90;;;;;;5017651;28;20468;-60
2022/05/18 02:04:31;;;;;;;20.47;18.43;;;15.90;99.90;;;;;;5017522;28;20470;-61
2022/05/18 02:06:59;;;;;;;19.80;18.00;;;15.90;99.90;;;;;;5017634;28;20859;-61
2022/05/18 02:09:26;;;;;;;19.93;17.97;;;15.90;99.90;;;;;;5017134;28;20453;-62
2022/05/18 02:11:54;;;;;;;19.33;17.23;;;15.90;99.90;;;;;;5017125;28;20979;-61
2022/05/18 02:14:24;;;;;;;20.13;18.33;;;15.90;99.90;;;;;;5017222;28;20501;-61
2022/05/18 02:16:51;;;;;;;19.97;17.97;;;15.80;99.90;;;;;;5017305;28;20457;-62
2022/05/18 02:19:18;;;;;;;20.50;18.67;;;15.80;99.90;;;;;;5016585;28;20453;-62
2022/05/18 02:21:45;;;;;;;20.93;18.90;;;15.80;99.90;;;;;;5016732;28;20533;-60
2022/05/18 02:24:12;;;;;;;19.77;17.73;;;15.80;99.90;;;;;;5016144;28;20482;-61
2022/05/18 02:26:39;;;;;;;20.47;18.50;;;15.80;99.90;;;;;;5016328;28;20450;-62
2022/05/18 02:29:07;;;;;;;20.33;18.43;;;15.80;99.90;;;;;;5016746;28;20453;-61
2022/05/18 02:31:36;;;;;;;22.17;19.90;;;15.80;99.90;;;;;;5017190;28;20446;-61
2022/05/18 02:34:03;;;;;;;23.73;20.50;;;15.80;99.90;;;;;;5016157;28;20856;-63
2022/05/18 02:36:30;;;;;;;20.90;18.90;;;15.80;99.90;;;;;;5015977;28;20489;-61
2022/05/18 02:38:57;;;;;;;20.50;18.70;;;15.80;99.90;;;;;;5016089;28;20450;-61
2022/05/18 02:41:24;;;;;;;20.97;18.77;;;15.70;99.90;;;;;;5016065;28;20530;-61
2022/05/18 02:43:52;;;;;;;21.57;19.30;;;15.70;99.90;;;;;;5016157;28;20461;-63
2022/05/18 02:46:22;;;;;;;18.37;16.60;;;15.70;99.90;;;;;;5016251;28;20450;-63
2022/05/18 02:48:52;;;;;;;19.67;17.17;;;15.70;99.90;;;;;;5015085;28;20967;-62
2022/05/18 02:51:19;;;;;;;19.37;17.37;;;15.70;99.90;;;;;;5016658;28;20461;-61
2022/05/18 02:53:47;;;;;;;19.70;18.00;;;15.70;99.90;;;;;;5015884;28;20449;-63
2022/05/18 02:56:17;;;;;;;19.70;17.90;;;15.70;99.90;;;;;;5016639;28;20477;-62
2022/05/18 02:58:46;;;;;;;19.80;18.00;;;15.60;99.90;;;;;;5016192;28;20560;-62
2022/05/18 03:01:16;;;;;;;19.77;17.67;;;15.60;99.90;;;;;;5016508;28;20457;-61
2022/05/18 03:03:44;;;;;;;20.40;18.57;;;15.60;99.90;;;;;;5016079;28;20453;-62
2022/05/18 03:06:15;;;;;;;19.67;17.87;;;15.60;99.90;;;;;;5015994;28;20519;-61
2022/05/18 03:08:44;;;;;;;22.07;19.80;;;15.60;99.90;;;;;;5015903;28;20427;-62
2022/05/18 03:11:12;;;;;;;20.93;18.60;;;15.60;99.90;;;;;;5015405;28;20466;-62
2022/05/18 03:13:39;;;;;;;19.13;17.27;;;15.60;99.90;;;;;;5015619;28;20468;-63
2022/05/18 03:16:07;;;;;;;20.07;18.17;;;15.70;99.90;;;;;;5014812;28;20481;-62
2022/05/18 03:18:36;;;;;;;20.00;18.13;;;15.70;99.90;;;;;;5014546;28;21016;-62
2022/05/18 03:23:50;;;;;;;18.80;17.00;;;15.70;99.90;;;;;;5015290;28;20996;-62
2022/05/18 03:26:19;;;;;;;19.97;18.17;;;15.70;99.90;;;;;;5015212;28;20445;-63
2022/05/18 03:28:48;;;;;;;18.93;17.13;;;15.70;99.90;;;;;;5014476;28;20457;-62
2022/05/18 03:31:16;;;;;;;18.40;16.60;;;15.80;99.90;;;;;;5015234;28;20956;-61
2022/05/18 03:33:44;;;;;;;19.80;17.90;;;15.70;99.90;;;;;;5014851;28;20445;-62
2022/05/18 03:36:12;;;;;;;18.63;16.80;;;15.80;99.90;;;;;;5014799;28;20887;-63
2022/05/18 03:38:40;;;;;;;19.53;17.03;;;15.70;99.90;;;;;;5014664;28;20454;-62
2022/05/18 03:41:09;;;;;;;19.70;17.80;;;15.70;99.90;;;;;;5014467;28;20457;-62
2022/05/18 03:43:37;;;;;;;20.07;18.20;;;15.80;99.90;;;;;;5014625;28;20488;-62
2022/05/18 03:46:04;;;;;;;19.27;17.47;;;15.80;99.90;;;;;;5015236;28;20467;-62
2022/05/18 03:48:32;;;;;;;18.77;16.83;;;15.80;99.90;;;;;;5017892;28;20445;-62
2022/05/18 03:51:01;;;;;;;23.77;17.10;;;15.80;99.90;;;;;;5015385;28;20525;-62
2022/05/18 03:53:29;;;;;;;19.50;17.47;;;15.90;99.90;;;;;;5014320;28;20457;-62
2022/05/18 03:55:56;;;;;;;17.47;15.97;;;15.90;99.90;;;;;;5014083;28;20515;-62
2022/05/18 03:58:25;;;;;;;18.67;16.97;;;15.90;99.90;;;;;;5014177;28;20456;-62
2022/05/18 04:00:55;;;;;;;18.83;16.97;;;15.90;99.90;;;;;;5013994;28;20461;-62
2022/05/18 04:03:25;;;;;;;18.80;17.03;;;16.00;99.90;;;;;;5014584;28;20453;-62
2022/05/18 04:05:53;;;;;;;18.87;17.17;;;16.00;99.90;;;;;;5014781;28;20462;-63
2022/05/18 04:09:47;;;;;;;18.13;16.43;;;16.00;99.90;;;;;;5110991;27;1384775;-61
2022/05/18 04:12:14;;;;;;;19.10;17.30;;;16.10;99.90;;;;;;5134263;28;20446;-61
2022/05/18 04:14:41;;;;;;;19.43;17.53;;;16.10;99.90;;;;;;5134337;28;20457;-62
2022/05/18 04:17:09;;;;;;;19.30;17.47;;;16.10;99.90;;;;;;5134379;28;20444;-61
2022/05/18 04:19:36;;;;;;;20.37;16.57;;;16.10;99.90;;;;;;5134126;28;20433;-61
2022/05/18 04:22:03;;;;;;;19.03;17.37;;;16.10;99.90;;;;;;5133432;28;20468;-61
2022/05/18 04:24:30;;;;;;;18.80;17.10;;;16.10;99.90;;;;;;5133382;28;20467;-61
2022/05/18 04:26:58;;;;;;;18.30;16.50;;;16.10;99.90;;;;;;5133494;28;20436;-61
2022/05/18 04:29:25;;;;;;;18.10;16.57;;;16.20;99.90;;;;;;5133423;28;20484;-62
2022/05/18 04:31:52;;;;;;;19.13;17.37;;;16.20;99.90;;;;;;5133822;28;20444;-61
2022/05/18 04:34:21;;;;;;;18.30;16.50;;;16.20;99.90;;;;;;5132965;28;20460;-61
2022/05/18 04:36:48;;;;;;;21.23;19.10;;;16.30;99.90;;;;;;5133085;28;20448;-61
2022/05/18 04:39:15;;;;;;;17.03;15.37;;;16.30;99.90;;;;;;5133485;28;20778;-62
2022/05/18 04:41:42;;;;;;;17.87;16.43;;;16.30;99.90;;;;;;5132866;28;20445;-61
2022/05/18 04:44:11;;;;;;;17.20;15.43;;;16.30;99.90;;;;;;5133066;28;20479;-61
2022/05/18 04:46:40;;;;;;;18.50;16.73;;;16.40;99.90;;;;;;5132540;28;20533;-61
2022/05/18 04:49:07;;;;;;;18.57;16.87;;;16.40;99.90;;;;;;5133628;28;20498;-62
2022/05/18 04:51:34;;;;;;;19.37;17.40;;;16.40;99.90;;;;;;5132779;28;20437;-61
2022/05/18 04:54:01;;;;;;;19.47;16.10;;;16.50;99.90;;;;;;5132037;28;20444;-61
2022/05/18 04:56:28;;;;;;;18.43;16.83;;;16.50;99.90;;;;;;5133182;28;20440;-62
2022/05/18 04:58:55;;;;;;;19.33;17.53;;;16.50;99.90;;;;;;5132317;28;20436;-61
2022/05/18 05:01:26;;;;;;;18.80;17.00;;;16.50;99.90;;;;;;5132319;28;20447;-63
2022/05/18 05:03:53;;;;;;;18.47;16.67;;;16.60;99.90;;;;;;5131766;28;20904;-63
2022/05/18 05:06:20;;;;;;;19.63;17.60;;;16.60;99.90;;;;;;5131605;28;20815;-61
2022/05/18 05:08:47;;;;;;;18.23;16.37;;;16.60;99.90;;;;;;5127720;28;21013;-61
2022/05/18 05:11:14;;;;;;;17.77;15.93;;;16.70;99.90;;;;;;5119567;28;20461;-64
2022/05/18 05:13:41;;;;;;;19.30;17.20;;;16.70;99.90;;;;;;5114682;28;20458;-62
2022/05/18 05:16:10;;;;;;;17.27;15.67;;;16.70;99.90;;;;;;5131910;28;20471;-61
2022/05/18 05:18:39;;;;;;;18.53;16.83;;;16.70;99.90;;;;;;5116191;28;20473;-61
2022/05/18 05:21:07;;;;;;;17.90;16.17;;;16.80;99.90;;;;;;5108467;28;20472;-63
2022/05/18 05:23:34;;;;;;;17.50;15.77;;;16.80;99.90;;;;;;5117725;28;20787;-62
2022/05/18 05:26:01;;;;;;;16.83;15.30;;;16.80;99.90;;;;;;5099804;22;21034;-66
2022/05/18 05:28:28;;;;;;;18.30;16.40;;;16.90;99.90;;;;;;5055698;28;20510;-67
2022/05/18 05:30:55;;;;;;;17.70;16.00;;;17.00;99.90;;;;;;5054472;28;20830;-68
2022/05/18 05:33:22;;;;;;;17.53;15.83;;;17.10;99.90;;;;;;5051015;28;20838;-67
2022/05/18 05:35:51;;;;;;;18.60;16.07;;;17.30;99.90;;;;;;5063056;28;20476;-66
2022/05/18 05:38:18;;;;;;;15.83;14.43;;;17.60;99.90;;;;;;5066680;28;20436;-64
2022/05/18 05:40:46;;;;;;;14.63;13.30;;;18.00;99.90;;;;;;5075354;28;20550;-65
2022/05/18 05:43:14;;;;;;;15.40;13.73;;;18.50;99.90;;;;;;5060663;28;20480;-65
2022/05/18 05:45:41;;;;;;;15.67;13.03;;;19.10;99.90;;;;;;5055249;28;20537;-65
2022/05/18 05:48:10;;;;;;;14.37;12.47;;;19.50;99.90;;;;;;5054665;28;20480;-66
2022/05/18 05:50:38;;;;;;;13.00;11.80;;;19.90;99.90;;;;;;5055278;28;20547;-65
2022/05/18 05:53:06;;;;;;;13.30;11.90;;;20.40;99.90;;;;;;5056158;28;20436;-66
2022/05/18 05:55:33;;;;;;;11.50;10.33;;;20.80;99.90;;;;;;5074781;28;20467;-65
2022/05/18 05:58:01;;;;;;;18.73;9.93;;;21.20;99.90;;;;;;5075346;28;20457;-66
2022/05/18 06:00:28;;;;;;;11.47;10.43;;;21.50;98.60;;;;;;5075127;28;20439;-66
2022/05/18 06:02:55;;;;;;;12.07;10.90;;;21.60;97.30;;;;;;5074926;28;20447;-66
2022/05/18 06:05:22;;;;;;;11.77;10.37;;;21.60;96.40;;;;;;5073814;28;20467;-67
2022/05/18 06:07:50;;;;;;;11.00;10.00;;;21.50;95.60;;;;;;5074613;28;20471;-67
2022/05/18 06:10:18;;;;;;;13.47;10.97;;;21.30;95.30;;;;;;5074129;28;20780;-66
2022/05/18 06:12:45;;;;;;;11.50;10.50;;;21.20;95.20;;;;;;5074321;28;20450;-67
2022/05/18 06:15:12;;;;;;;11.53;9.83;;;21.20;95.10;;;;;;5074326;28;20474;-66
2022/05/18 06:17:40;;;;;;;11.73;9.60;;;21.30;94.60;;;;;;5074125;28;20447;-66
2022/05/18 06:20:08;;;;;;;11.07;9.93;;;21.40;94.00;;;;;;5074808;28;20436;-66
2022/05/18 06:22:35;;;;;;;11.47;8.67;;;21.50;93.40;;;;;;5072604;28;20465;-66
2022/05/18 06:25:02;;;;;;;10.87;9.80;;;21.60;92.90;;;;;;5073757;28;20467;-66
2022/05/18 06:27:31;;;;;;;10.40;8.73;;;21.60;92.40;;;;;;5074316;28;20423;-67
2022/05/18 06:29:58;;;;;;;9.67;8.67;;;21.70;91.80;;;;;;5074186;28;20494;-67
2022/05/18 06:32:25;;;;;;;9.40;8.50;;;21.70;91.30;;;;;;5074158;28;20447;-66
2022/05/18 06:34:52;;;;;;;9.70;8.70;;;21.80;90.80;;;;;;5073612;28;20474;-65
2022/05/18 06:37:19;;;;;;;9.20;8.30;;;22.00;90.30;;;;;;5074513;28;20439;-65
2022/05/18 06:39:46;;;;;;;8.33;7.57;;;22.10;89.30;;;;;;5072971;28;20450;-68
2022/05/18 06:42:13;;;;;;;9.30;8.50;;;22.40;87.70;;;;;;5073609;28;20443;-66
2022/05/18 06:44:41;;;;;;;8.50;7.70;;;22.70;85.20;;;;;;5065208;28;20522;-66
2022/05/18 06:47:08;;;;;;;9.83;7.47;;;23.00;81.60;;;;;;5076779;28;20284;-66
2022/05/18 06:49:35;;;;;;;7.70;6.97;;;23.30;79.40;;;;;;5079873;28;20490;-68
2022/05/18 06:52:13;;;;;;;8.43;7.33;;;23.40;77.70;;;;;;5078992;28;20949;-65
2022/05/18 06:54:40;;;;;;;8.57;7.77;;;23.40;76.50;;;;;;5076077;28;20529;-64
2022/05/18 06:57:07;;;;;;;8.70;7.90;;;23.30;76.10;;;;;;5075654;28;20450;-65
2022/05/18 06:59:35;;;;;;;8.57;7.77;;;23.30;75.90;;;;;;5075875;28;20443;-66
2022/05/18 07:02:03;;;;;;;8.33;7.53;;;23.30;75.60;;;;;;5075119;28;20454;-66
2022/05/18 07:04:31;;;;;;;13.17;7.43;;;23.30;75.70;;;;;;5074014;28;20443;-65
2022/05/18 07:07:00;;;;;;;7.43;6.83;;;23.30;75.40;;;;;;5074011;28;20498;-67
2022/05/18 07:09:28;;;;;;;7.57;6.80;;;23.40;75.10;;;;;;5072931;28;20483;-66
2022/05/18 07:11:55;;;;;;;9.70;7.20;;;23.40;74.60;;;;;;5074297;28;20476;-67
2022/05/18 07:14:26;;;;;;;7.23;6.53;;;23.60;74.20;;;;;;5074488;28;20447;-66
2022/05/18 07:16:53;;;;;;;7.50;6.80;;;23.70;73.30;;;;;;5075113;28;20503;-64
2022/05/18 07:19:23;;;;;;;7.03;6.37;;;23.90;72.30;;;;;;5074133;28;20443;-66
2022/05/18 07:21:50;;;;;;;7.40;6.70;;;24.10;71.40;;;;;;5073329;28;20451;-66
2022/05/18 07:24:18;;;;;;;8.10;6.80;;;24.20;70.40;;;;;;5074514;28;20915;-66
2022/05/18 07:26:45;;;;;;;6.90;6.30;;;24.30;69.90;;;;;;5074556;28;20851;-66
2022/05/18 07:29:12;;;;;;;9.33;7.20;;;24.40;69.70;;;;;;5073337;28;20483;-66
2022/05/18 07:34:25;;;;;;;7.20;6.50;;;24.60;68.40;;;;;;5073539;28;20457;-67
2022/05/18 07:36:54;;;;;;;7.68;6.60;;;24.80;67.50;;;;;;5072335;28;20413;-65
2022/05/18 07:39:22;;;;;;;6.25;5.65;;;24.90;66.90;;;;;;5072895;28;20494;-64
2022/05/18 07:41:50;;;;;;;6.63;6.10;;;25.00;66.20;;;;;;5077894;28;20211;-64
2022/05/18 07:44:17;;;;;;;7.03;6.10;;;25.10;65.50;;;;;;5080462;28;20451;-65
2022/05/18 07:46:44;;;;;;;6.30;5.70;;;25.10;65.00;;;;;;5085304;28;20471;-63
2022/05/18 07:49:11;;;;;;;6.33;5.80;;;25.20;64.50;;;;;;5081892;28;20474;-65
2022/05/18 07:51:39;;;;;;;7.97;6.43;;;25.10;64.10;;;;;;5080744;28;20443;-65
2022/05/18 07:54:06;;;;;;;5.83;5.30;;;25.20;64.30;;;;;;5080041;28;20817;-65
2022/05/18 07:56:34;;;;;;;5.93;4.90;;;25.20;63.80;;;;;;5081406;28;20538;-65
2022/05/18 07:59:01;;;;;;;8.20;5.07;;;25.30;63.40;;;;;;5073345;28;20479;-64
2022/05/18 08:01:28;;;;;;;5.70;4.80;;;25.40;63.10;;;;;;5073415;28;20451;-61
2022/05/18 08:03:56;;;;;;;5.60;5.10;;;25.50;62.50;;;;;;5072766;28;20993;-65
2022/05/18 08:06:23;;;;;;;5.70;5.07;;;25.50;61.50;;;;;;5070780;28;20467;-64
2022/05/18 08:08:51;;;;;;;5.63;5.13;;;25.50;61.10;;;;;;5071424;28;20470;-63
2022/05/18 08:16:48;;;;;;;5.50;5.00;;;25.70;60.10;;;;;;5072596;28;20516;-64
2022/05/18 08:19:16;;;;;;;6.10;4.97;;;25.70;59.80;;;;;;5072837;28;20461;-64
2022/05/18 08:21:44;;;;;;;5.77;4.43;;;25.90;59.60;;;;;;5071606;28;20979;-63
2022/05/18 08:24:13;;;;;;;6.97;5.30;;;26.00;59.00;;;;;;5072272;28;21024;-64
2022/05/18 08:26:41;;;;;;;5.07;4.53;;;26.20;58.40;;;;;;5071310;28;20475;-64
2022/05/18 08:29:09;;;;;;;5.93;4.30;;;26.20;58.10;;;;;;5072607;28;20486;-64
2022/05/18 08:31:36;;;;;;;6.27;4.37;;;26.20;58.10;;;;;;5072337;28;20457;-64
2022/05/18 08:34:03;;;;;;;7.00;3.90;;;26.20;57.90;;;;;;5071102;28;20455;-64
2022/05/18 08:36:31;;;;;;;7.67;3.90;;;26.10;57.40;;;;;;5071370;28;20997;-62
2022/05/18 08:38:59;;;;;;;4.87;4.27;;;26.10;56.90;;;;;;5072051;28;20439;-63
2022/05/18 08:41:31;;;;;;;5.23;4.03;;;26.20;56.50;;;;;;5067676;28;20460;-62
2022/05/18 08:44:01;;;;;;;4.97;4.47;;;26.20;56.10;;;;;;5056245;28;20528;-67
2022/05/18 08:46:42;;;;;;;5.63;3.70;;;26.30;56.00;;;;;;5072381;28;20463;-67
2022/05/18 08:49:14;;;;;;;4.10;3.70;;;26.50;55.50;;;;;;5072477;28;20470;-64
2022/05/18 08:51:51;;;;;;;5.80;4.03;;;26.50;55.30;;;;;;5071252;28;20459;-69
2022/05/18 08:54:44;;;;;;;5.67;3.63;;;26.30;55.20;;;;;;5052775;28;21086;-66
2022/05/18 08:57:19;;;;;;;7.17;3.93;;;26.20;55.40;;;;;;5056021;28;20432;-67
2022/05/18 08:59:49;;;;;;;6.10;4.40;;;26.20;55.60;;;;;;5055592;28;20804;-65
2022/05/18 09:02:20;;;;;;;6.20;4.03;;;26.30;55.50;;;;;;5075050;28;20957;-64
2022/05/18 09:04:52;;;;;;;7.20;4.23;;;26.30;55.30;;;;;;5075074;28;20439;-64
2022/05/18 09:07:23;;;;;;;10.23;4.60;;;26.40;55.20;;;;;;5075962;28;20432;-65
2022/05/18 09:12:41;;;;;;;7.57;4.53;;;26.60;55.00;;;;;;5074903;28;20418;-66
2022/05/18 09:15:11;;;;;;;6.20;4.83;;;26.70;54.90;;;;;;5075812;28;20463;-65
2022/05/18 09:17:48;;;;;;;5.10;4.70;;;26.70;55.00;;;;;;5075591;28;20474;-64
2022/05/18 09:20:20;;;;;;;6.60;4.63;;;26.80;55.00;;;;;;5074469;28;20960;-65
2022/05/18 09:23:09;;;;;;;4.27;3.80;;;26.90;55.00;;;;;;5075784;28;20443;-65
2022/05/18 09:25:49;;;;;;;7.20;5.23;;;27.10;54.80;;;;;;5074667;28;20982;-63
2022/05/18 09:28:32;;;;;;;7.93;4.63;;;27.30;54.50;;;;;;5075048;28;20454;-65
2022/05/18 09:31:13;;;;;;;5.50;5.00;;;27.50;54.00;;;;;;5075046;28;20471;-63
2022/05/18 09:34:06;;;;;;;7.63;4.87;;;27.60;53.90;;;;;;5075510;28;20817;-64
2022/05/18 09:36:59;;;;;;;4.80;4.40;;;27.90;53.40;;;;;;5075345;28;20490;-64
2022/05/18 09:39:31;;;;;;;5.27;4.73;;;28.10;52.90;;;;;;5068065;28;20450;-65
2022/05/18 09:42:07;;;;;;;5.50;4.53;;;28.20;52.70;;;;;;5073335;28;20460;-64
2022/05/18 09:44:41;;;;;;;5.43;4.40;;;28.10;52.60;;;;;;5074806;28;20460;-65
2022/05/18 09:47:12;;;;;;;5.83;4.03;;;28.00;52.70;;;;;;5075372;28;20467;-66
2022/05/18 09:49:44;;;;;;;5.53;4.40;;;28.20;52.60;;;;;;5074986;28;20475;-64
2022/05/18 09:52:13;;;;;;;4.53;3.90;;;28.40;52.00;;;;;;5082198;28;20431;-66
2022/05/18 09:54:40;;;;;;;7.90;5.80;;;28.70;51.50;;;;;;5078311;28;20857;-65
2022/05/18 09:57:12;;;;;;;6.20;4.63;;;28.70;51.10;;;;;;5075155;28;20449;-64
2022/05/18 09:59:44;;;;;;;4.90;4.40;;;28.80;51.10;;;;;;5073998;28;20463;-64
2022/05/18 10:07:50;;;;;;;6.40;4.70;;;28.60;51.20;;;;;;5074437;28;20407;-65
2022/05/18 10:10:23;;;;;;;6.33;3.70;;;28.60;51.30;;;;;;5074015;28;20482;-64
2022/05/18 10:13:02;;;;;;;4.40;4.03;;;28.70;51.30;;;;;;5075360;28;20442;-65
2022/05/18 10:15:37;;;;;;;10.47;3.97;;;28.80;51.10;;;;;;5073561;28;20930;-65
2022/05/18 10:18:18;;;;;;;6.33;3.87;;;28.90;50.60;;;;;;5074152;28;20477;-67
2022/05/18 10:21:01;;;;;;;4.00;3.50;;;28.60;50.10;;;;;;5074674;28;20518;-65
2022/05/18 10:23:34;;;;;;;4.47;3.43;;;28.40;50.00;;;;;;5073409;28;20473;-65
2022/05/18 10:26:03;;;;;;;5.27;4.30;;;28.30;49.80;;;;;;5073680;28;20510;-65
2022/05/18 10:28:31;;;;;;;3.53;3.20;;;28.40;49.70;;;;;;5073812;28;20480;-65
2022/05/18 10:31:02;;;;;;;3.27;3.07;;;28.60;48.90;;;;;;5072269;28;20482;-65
2022/05/18 10:33:33;;;;;;;5.90;3.90;;;28.70;47.70;;;;;;5073702;28;20427;-65
2022/05/18 10:36:10;;;;;;;4.80;4.17;;;28.50;47.20;;;;;;5072201;28;20487;-66
2022/05/18 10:38:43;;;;;;;4.60;3.90;;;28.50;47.90;;;;;;5073561;28;20869;-65
2022/05/18 10:41:15;;;;;;;5.57;3.80;;;28.70;47.90;;;;;;5074022;28;20431;-65
2022/05/18 10:43:47;;;;;;;4.50;3.57;;;28.90;47.60;;;;;;5072718;28;20884;-64
2022/05/18 10:46:19;;;;;;;4.00;3.60;;;29.00;48.10;;;;;;5073143;28;20986;-65
2022/05/18 10:48:56;;;;;;;6.40;3.90;;;28.90;47.70;;;;;;5073825;28;20447;-66
2022/05/18 10:51:31;;;;;;;5.87;3.63;;;28.80;47.90;;;;;;5069742;28;20474;-65
2022/05/18 10:54:11;;;;;;;5.37;2.90;;;28.90;47.80;;;;;;5070976;28;20435;-64
2022/05/18 10:56:38;;;;;;;5.30;3.50;;;29.00;47.60;;;;;;5071269;28;21052;-65
2022/05/18 10:59:31;;;;;;;3.70;3.40;;;29.20;47.40;;;;;;5071136;28;20451;-65
2022/05/18 11:02:07;;;;;;;3.73;3.30;;;29.50;46.90;;;;;;5072302;28;20450;-64
2022/05/18 11:04:49;;;;;;;4.20;3.30;;;29.80;46.30;;;;;;5073413;28;20430;-65
2022/05/18 11:07:16;;;;;;;6.20;3.90;;;30.10;45.90;;;;;;5072638;28;20447;-64
2022/05/18 11:09:43;;;;;;;6.10;4.17;;;30.20;45.60;;;;;;5073436;28;20449;-66
2022/05/18 11:12:24;;;;;;;4.77;3.10;;;30.40;45.40;;;;;;5072612;28;20863;-65
2022/05/18 11:14:58;;;;;;;4.47;3.40;;;30.60;44.90;;;;;;5073657;28;20448;-65
2022/05/18 11:17:40;;;;;;;6.90;3.90;;;30.60;44.60;;;;;;5072988;28;20427;-66
2022/05/18 11:20:29;;;;;;;6.10;3.20;;;30.50;44.30;;;;;;5072459;28;20438;-67
2022/05/18 11:23:09;;;;;;;3.67;3.37;;;30.50;44.30;;;;;;5073066;28;20434;-67
2022/05/18 11:28:16;;;;;;;4.30;2.80;;;30.20;44.50;;;;;;5011474;28;20462;-60
2022/05/18 11:30:46;;;;;;;5.63;4.03;;;29.90;45.00;;;;;;5011415;28;20474;-59
2022/05/18 11:33:28;;;;;;;6.27;3.63;;;29.70;45.50;;;;;;5014743;28;20470;-59
2022/05/18 11:36:05;;;;;;;4.17;3.60;;;29.80;45.60;;;;;;5014281;28;20473;-60
2022/05/18 11:38:50;;;;;;;4.20;3.40;;;29.90;45.60;;;;;;5011540;28;20446;-59
2022/05/18 11:41:34;;;;;;;4.13;3.73;;;30.10;45.30;;;;;;5015796;28;20952;-60
2022/05/18 11:44:05;;;;;;;3.47;3.17;;;30.40;44.80;;;;;;5016055;28;20520;-61
2022/05/18 11:46:50;;;;;;;4.33;3.70;;;30.50;44.60;;;;;;5012324;28;20474;-62
2022/05/18 11:49:22;;;;;;;3.80;3.00;;;30.80;44.50;;;;;;5013869;28;20552;-60
2022/05/18 11:52:11;;;;;;;3.40;3.07;;;31.30;43.40;;;;;;5013377;28;20497;-60
2022/05/18 11:54:53;;;;;;;3.87;2.87;;;31.90;42.00;;;;;;5012948;28;20737;-60
2022/05/18 11:57:32;;;;;;;4.70;2.70;;;32.70;40.50;;;;;;4993590;28;20474;-59
2022/05/18 12:00:10;;;;;;;6.20;3.27;;;33.30;39.10;;;;;;4993844;28;20442;-60
2022/05/18 12:03:04;;;;;;;3.63;3.00;;;33.50;38.30;;;;;;4993952;28;20439;-59
2022/05/18 12:05:56;;;;;;;3.70;2.70;;;32.90;38.60;;;;;;4993576;28;20442;-60
2022/05/18 12:08:52;;;;;;;3.30;2.70;;;32.40;39.10;;;;;;5011783;28;20930;-60
2022/05/18 12:11:30;;;;;;;4.07;3.10;;;32.60;38.70;;;;;;5012945;28;20521;-60
2022/05/18 12:14:13;;;;;;;3.93;3.03;;;32.80;38.10;;;;;;5012882;28;20430;-60
2022/05/18 12:16:48;;;;;;;3.50;3.20;;;33.20;37.70;;;;;;5012632;28;20883;-60
2022/05/18 12:19:22;;;;;;;3.47;3.17;;;33.60;37.20;;;;;;5012341;28;20548;-60
2022/05/18 12:21:54;;;;;;;3.77;3.30;;;33.70;36.80;;;;;;5013096;28;20532;-61
2022/05/18 12:24:24;;;;;;;3.77;3.00;;;33.50;36.90;;;;;;5012851;28;20450;-62
2022/05/18 12:26:51;;;;;;;5.20;3.23;;;33.20;37.30;;;;;;5013075;28;20482;-59
2022/05/18 12:29:23;;;;;;;5.10;3.57;;;32.90;37.70;;;;;;5013259;28;20445;-61
2022/05/18 12:31:52;;;;;;;3.00;2.70;;;33.10;37.70;;;;;;5016837;28;20469;-58
2022/05/18 12:34:24;;;;;;;6.17;3.03;;;33.30;37.20;;;;;;5017539;28;20789;-60
2022/05/18 12:36:56;;;;;;;3.33;2.50;;;33.40;36.90;;;;;;5007484;28;20489;-61
2022/05/18 12:39:40;;;;;;;3.83;3.07;;;33.30;36.70;;;;;;4996232;28;20442;-61
2022/05/18 12:42:11;;;;;;;3.07;2.83;;;33.10;36.60;;;;;;4997468;28;20430;-60
2022/05/18 12:44:41;;;;;;;3.10;2.80;;;32.90;36.70;;;;;;4998130;28;20427;-60
2022/05/18 12:47:22;;;;;;;3.70;2.50;;;32.70;37.00;;;;;;4997196;28;20473;-62
2022/05/18 12:49:57;;;;;;;8.43;3.20;;;32.70;37.00;;;;;;4998049;28;20830;-61
2022/05/18 12:52:44;;;;;;;2.87;2.57;;;32.90;37.00;;;;;;4997228;28;20509;-61
2022/05/18 12:55:35;;;;;;;4.27;3.07;;;33.00;36.50;;;;;;4997629;28;20445;-61
2022/05/18 12:58:23;;;;;;;5.43;2.90;;;32.90;36.10;;;;;;4997763;28;20775;-61
2022/05/18 13:01:04;;;;;;;3.87;3.00;;;32.70;37.10;;;;;;4996858;28;20434;-60
2022/05/18 13:03:57;;;;;;;4.60;3.20;;;32.60;36.50;;;;;;4996244;28;20437;-61
2022/05/18 13:06:43;;;;;;;3.37;2.60;;;32.60;36.60;;;;;;4988633;28;20558;-62
2022/05/18 13:09:36;;;;;;;4.83;3.20;;;32.60;36.50;;;;;;4996783;28;20451;-61
2022/05/18 13:12:31;;;;;;;6.00;3.20;;;32.40;36.20;;;;;;4996313;28;20470;-60
2022/05/18 13:15:02;;;;;;;3.50;2.50;;;32.40;36.30;;;;;;4996917;28;20446;-61
2022/05/18 13:17:51;;;;;;;3.97;3.63;;;32.40;36.30;;;;;;4996358;28;20470;-60
2022/05/18 13:20:41;;;;;;;3.57;2.33;;;32.40;36.30;;;;;;4996232;28;20438;-60